KADH

Ada Regional Airport

Ada, Oklahoma, USA
METAR KADH 210415Z AUTO 17016G23KT 10SM SCT013 14/13 A2986 RMK AO2
Observed Flight Rules
Jan-21 @ 04:15 UTC (34 minutes ago) Visual Flight Rules
Wind Visibility Clouds
170° at 16 knots
 Gusting to 23 knots
10 miles
  • Scattered at 1,300' AGL
Temperatures Readings
Current 14°C / 57°F
Dewpoint 13°C / 55°F
Humidity 94%
Altimeter 29.86" Hg
Pressure 1011 hPa
Elevation 308
METAR KADH 210415Z AUTO 17016G23KT 10SM SCT013 14/13 A2986 RMK AO2
Observed Flight Rules
Jan-21 @ 04:15 UTC
(34 minutes ago)
VFR
Wind Visibility
170° at 16 knots
 Gusting to 23 knots
10 miles
Clouds
  • Scattered at 1,300' AGL
Temperature Dewpoint
14°C / 57°F 13°C / 55°F
Humidity Altimeter Pressure
94% 29.86" Hg 1011 hPa